Terminal Aerodrome Forecast
Issued by NWS

Home | Current Version | Previous Version | Text Only | Print | Product List | Glossary On
Versions: 1 2 3 4 5 6 7 8 9 10 11 12 13
782
FTUS42 KTAE 250542
TAFVLD
TAF
KVLD 250542Z 2506/2606 16006KT P6SM SCT250
     FM251500 VRB03KT P6SM SCT030
     FM251900 22007KT P6SM VCTS SCT040CB
     FM260000 00000KT P6SM FEW250=

USA.gov is the U.S. government's official web portal to all federal, state and local government web resources and services.